Terminal Aerodrome Forecast
Issued by NWS North Platte, NE

Home | Current Version | Previous Version | Text Only | Print | Product List | Glossary On
Versions: 1 2 3 4 5 6 7 8 9 10 11 12 13 14 15 16 17 18 19 20 21 22 23
238
FTUS43 KLBF 242340
TAFVTN
TAF
KVTN 242340Z 2500/2524 31008KT P6SM SCT250
     FM250300 VRB04KT P6SM SCT250
     FM250900 23005KT P6SM BKN100
     FM251800 24009KT P6SM SCT100 BKN250
     FM252100 25009KT P6SM BKN250=

USA.gov is the U.S. government's official web portal to all federal, state and local government web resources and services.